createdAt,value
2022-11-20T00:01:34.427Z,84.76
2022-11-20T00:04:02.568Z,84.94
2022-11-20T00:06:30.777Z,84.87
2022-11-20T00:09:02.329Z,84.84
2022-11-20T00:11:32.723Z,84.99
2022-11-20T00:14:03.267Z,85.17
2022-11-20T00:16:33.775Z,85.24
2022-11-20T00:19:01.987Z,85.19
2022-11-20T00:21:31.183Z,85.47
2022-11-20T00:23:59.551Z,85.50
2022-11-20T00:26:29.157Z,85.11
2022-11-20T00:29:02.458Z,85.35
2022-11-20T00:31:31.575Z,85.37
2022-11-20T00:33:59.281Z,85.36
2022-11-20T00:36:29.373Z,85.04
2022-11-20T00:38:59.396Z,84.99
2022-11-20T00:41:30.211Z,85.17
2022-11-20T00:43:58.560Z,85.31
2022-11-20T00:46:28.667Z,85.43
2022-11-20T00:48:57.073Z,85.38
2022-11-20T00:51:27.690Z,85.43
2022-11-20T00:53:58.402Z,85.38
2022-11-20T00:56:27.005Z,85.50
2022-11-20T00:58:55.117Z,85.63
2022-11-20T01:01:26.768Z,85.61
2022-11-20T01:03:58.164Z,85.65
2022-11-20T01:06:36.421Z,85.60
2022-11-20T01:09:12.264Z,85.69
2022-11-20T01:11:45.695Z,85.84
2022-11-20T01:14:20.117Z,85.67
2022-11-20T01:16:51.496Z,85.63
2022-11-20T01:19:24.037Z,85.52
2022-11-20T01:21:55.065Z,85.27
2022-11-20T01:24:24.137Z,85.24
2022-11-20T01:26:52.086Z,85.11
2022-11-20T01:29:24.596Z,85.07
2022-11-20T01:31:54.002Z,85.04
2022-11-20T01:34:23.726Z,85.11
2022-11-20T01:36:54.240Z,85.02
2022-11-20T01:39:26.424Z,85.04
2022-11-20T01:42:15.019Z,85.07
2022-11-20T01:44:57.951Z,85.10
2022-11-20T01:47:39.336Z,85.30
2022-11-20T01:50:17.346Z,85.39
2022-11-20T01:53:04.674Z,85.22
2022-11-20T01:55:40.730Z,84.86
2022-11-20T01:58:09.611Z,84.93
2022-11-20T02:00:37.294Z,85.22
2022-11-20T02:03:12.009Z,85.32
2022-11-20T02:06:04.880Z,85.03
2022-11-20T02:08:34.202Z,85.28
2022-11-20T02:11:01.861Z,85.40
2022-11-20T02:13:45.486Z,85.44
2022-11-20T02:16:25.445Z,85.46
2022-11-20T02:18:56.840Z,85.16
2022-11-20T02:21:53.684Z,85.13
2022-11-20T02:24:23.586Z,85.14
2022-11-20T02:27:07.464Z,85.01
2022-11-20T02:29:45.540Z,85.23
2022-11-20T02:32:27.400Z,85.43
2022-11-20T02:34:56.099Z,85.06
2022-11-20T02:37:31.493Z,85.33
2022-11-20T02:39:59.141Z,85.17
2022-11-20T02:42:26.829Z,85.50
2022-11-20T02:44:54.532Z,85.22
2022-11-20T02:47:22.212Z,85.03
2022-11-20T02:49:49.828Z,85.23
2022-11-20T02:52:17.471Z,85.11
2022-11-20T02:54:45.163Z,85.49
2022-11-20T02:57:13.011Z,85.32
2022-11-20T02:59:40.753Z,85.20
2022-11-20T03:02:08.420Z,85.36
2022-11-20T03:04:36.178Z,85.46
2022-11-20T03:07:06.115Z,85.53
2022-11-20T03:09:33.805Z,85.70
2022-11-20T03:12:01.524Z,85.95
2022-11-20T03:14:29.243Z,85.92
2022-11-20T03:16:57.059Z,85.71
2022-11-20T03:19:25.216Z,85.78
2022-11-20T03:21:52.885Z,85.88
2022-11-20T03:24:20.571Z,86.04
2022-11-20T03:26:48.278Z,86.00
2022-11-20T03:29:15.933Z,85.86
2022-11-20T03:31:43.780Z,85.45
2022-11-20T03:34:12.646Z,85.55
2022-11-20T03:36:42.774Z,85.51
2022-11-20T03:39:10.926Z,85.69
2022-11-20T03:41:42.260Z,85.75
2022-11-20T03:44:12.326Z,85.94
2022-11-20T03:46:40.233Z,86.08
2022-11-20T03:49:08.195Z,86.06
2022-11-20T03:51:36.959Z,85.93
2022-11-20T03:54:09.604Z,85.96
2022-11-20T03:56:40.228Z,85.88
2022-11-20T03:59:07.957Z,85.96
2022-11-20T04:01:38.486Z,85.73
2022-11-20T04:04:06.831Z,85.95
2022-11-20T04:06:38.647Z,85.89
2022-11-20T04:09:07.402Z,86.03
2022-11-20T04:11:38.009Z,86.24
2022-11-20T04:14:13.410Z,86.38
2022-11-20T04:16:41.541Z,86.47
2022-11-20T04:19:15.933Z,86.56
2022-11-20T04:21:45.170Z,86.63
2022-11-20T04:24:13.402Z,86.62
2022-11-20T04:26:41.799Z,86.75
2022-11-20T04:29:12.737Z,86.88
2022-11-20T04:31:40.496Z,87.00
2022-11-20T04:34:09.023Z,87.13
2022-11-20T04:36:36.664Z,87.14
2022-11-20T04:39:07.171Z,87.29
2022-11-20T04:41:37.309Z,87.40
2022-11-20T04:44:07.024Z,87.36
2022-11-20T04:46:43.488Z,87.56
2022-11-20T04:49:12.636Z,87.65
2022-11-20T04:51:40.456Z,87.72
2022-11-20T04:54:09.080Z,87.76
2022-11-20T04:56:36.808Z,87.66
2022-11-20T04:59:04.527Z,87.71
2022-11-20T05:01:33.564Z,87.63
2022-11-20T05:04:01.303Z,87.75
2022-11-20T05:06:28.957Z,87.77
2022-11-20T05:08:56.654Z,87.77
2022-11-20T05:11:25.046Z,87.81
2022-11-20T05:13:53.046Z,87.92
2022-11-20T05:16:24.607Z,88.00
2022-11-20T05:18:55.273Z,87.96
2022-11-20T05:21:23.428Z,88.02
2022-11-20T05:23:51.117Z,88.01
2022-11-20T05:26:22.798Z,88.24
2022-11-20T05:28:52.017Z,88.24
2022-11-20T05:31:27.667Z,88.25
2022-11-20T05:33:57.900Z,88.23
2022-11-20T05:36:26.139Z,88.35
2022-11-20T05:38:59.808Z,88.40
2022-11-20T05:41:29.567Z,88.54
2022-11-20T05:43:58.876Z,88.36
2022-11-20T05:46:28.992Z,88.51
2022-11-20T05:48:58.717Z,88.55
2022-11-20T05:51:27.182Z,88.66
2022-11-20T05:53:57.381Z,88.63
2022-11-20T05:56:25.152Z,88.58
2022-11-20T05:58:52.814Z,88.68
2022-11-20T06:01:25.489Z,88.60
2022-11-20T06:03:54.977Z,88.58
2022-11-20T06:06:23.700Z,88.70
2022-11-20T06:08:51.429Z,88.72
2022-11-20T06:11:19.715Z,88.77
2022-11-20T06:13:49.377Z,88.82
2022-11-20T06:16:20.654Z,88.88
2022-11-20T06:18:49.037Z,89.02
2022-11-20T06:21:20.591Z,89.15
2022-11-20T06:23:50.570Z,89.26
2022-11-20T06:26:23.064Z,89.28
2022-11-20T06:28:52.664Z,89.23
2022-11-20T06:31:24.507Z,89.22
2022-11-20T06:33:53.240Z,89.21
2022-11-20T06:36:23.621Z,89.44
2022-11-20T06:38:51.427Z,89.42
2022-11-20T06:41:22.668Z,89.50
2022-11-20T06:43:50.972Z,89.55
2022-11-20T06:46:20.638Z,89.54
2022-11-20T06:48:50.606Z,89.43
2022-11-20T06:51:18.556Z,89.30
2022-11-20T06:53:46.462Z,89.19
2022-11-20T06:56:14.234Z,89.40
2022-11-20T06:58:42.024Z,89.33
2022-11-20T07:01:15.888Z,89.50
2022-11-20T07:03:44.006Z,89.47
2022-11-20T07:06:12.077Z,89.11
2022-11-20T07:08:39.751Z,88.85
2022-11-20T07:11:08.965Z,88.69
2022-11-20T07:13:36.678Z,88.67
2022-11-20T07:16:09.006Z,88.84
2022-11-20T07:18:37.132Z,88.57
2022-11-20T07:21:08.985Z,88.59
2022-11-20T07:23:37.664Z,88.63
2022-11-20T07:26:08.394Z,88.33
2022-11-20T07:28:36.854Z,88.22
2022-11-20T07:31:05.898Z,88.35
2022-11-20T07:33:33.791Z,88.10
2022-11-20T07:36:02.546Z,88.12
2022-11-20T07:38:30.336Z,88.31
2022-11-20T07:40:58.845Z,87.92
2022-11-20T07:43:26.698Z,87.71
2022-11-20T07:45:59.341Z,87.60
2022-11-20T07:48:27.414Z,87.52
2022-11-20T07:50:59.342Z,87.57
2022-11-20T07:53:27.073Z,87.94
2022-11-20T07:55:54.856Z,88.41
2022-11-20T07:58:22.857Z,88.88
2022-11-20T08:00:50.647Z,88.83
2022-11-20T08:03:24.342Z,88.78
2022-11-20T08:05:53.082Z,88.87
2022-11-20T08:08:22.466Z,88.80
2022-11-20T08:10:50.202Z,89.05
2022-11-20T08:13:36.548Z,89.11
2022-11-20T08:16:04.807Z,89.17
2022-11-20T08:18:33.110Z,89.27
2022-11-20T08:21:05.661Z,89.04
2022-11-20T08:23:33.447Z,88.99
2022-11-20T08:26:01.169Z,89.01
2022-11-20T08:28:29.057Z,89.04
2022-11-20T08:31:01.882Z,88.95
2022-11-20T08:33:30.801Z,89.00
2022-11-20T08:36:03.536Z,88.84
2022-11-20T08:38:32.312Z,88.71
2022-11-20T08:41:20.663Z,88.63
2022-11-20T08:43:48.525Z,88.72
2022-11-20T08:46:16.614Z,88.67
2022-11-20T08:48:45.169Z,88.84
2022-11-20T08:51:13.753Z,88.87
2022-11-20T08:53:41.820Z,88.93
2022-11-20T08:56:13.210Z,88.87
2022-11-20T08:59:09.977Z,88.86
2022-11-20T09:01:30.336Z,88.74
2022-11-20T09:03:58.909Z,88.60
2022-11-20T09:06:26.977Z,88.58
2022-11-20T09:08:55.707Z,88.50
2022-11-20T09:11:23.834Z,88.45
2022-11-20T09:13:51.681Z,88.48
2022-11-20T09:16:19.358Z,88.42
2022-11-20T09:18:47.229Z,88.38
2022-11-20T09:21:15.266Z,88.37
2022-11-20T09:23:43.113Z,88.48
2022-11-20T09:26:15.636Z,88.44
2022-11-20T09:28:43.321Z,88.51
2022-11-20T09:31:23.975Z,88.43
2022-11-20T09:33:51.864Z,88.49
2022-11-20T09:36:19.768Z,88.45
2022-11-20T09:38:48.005Z,88.35
2022-11-20T09:41:48.808Z,88.26
2022-11-20T09:44:52.997Z,88.09
2022-11-20T09:48:16.210Z,88.13
2022-11-20T09:50:57.003Z,88.20
2022-11-20T09:53:45.566Z,88.09
2022-11-20T09:56:19.667Z,87.95
2022-11-20T09:58:54.849Z,87.76
2022-11-20T10:01:28.141Z,87.61
2022-11-20T10:04:19.278Z,87.37
2022-11-20T10:07:31.571Z,87.26
2022-11-20T10:09:57.501Z,87.11
2022-11-20T10:12:53.321Z,87.02
2022-11-20T10:15:41.516Z,86.56
2022-11-20T10:18:26.562Z,85.37
2022-11-20T10:21:28.560Z,85.17
2022-11-20T10:24:29.800Z,85.48
2022-11-20T10:27:19.189Z,85.32
2022-11-20T10:30:01.839Z,85.46
2022-11-20T10:32:39.712Z,85.41
2022-11-20T10:35:46.961Z,84.66
2022-11-20T10:38:27.225Z,84.51
2022-11-20T10:41:22.028Z,84.53
2022-11-20T10:44:00.519Z,84.39
2022-11-20T10:46:41.611Z,83.91
2022-11-20T10:49:16.624Z,83.84
2022-11-20T10:52:12.136Z,83.81
2022-11-20T10:55:00.659Z,82.72
2022-11-20T10:58:02.907Z,82.97
2022-11-20T11:00:34.102Z,82.39
2022-11-20T11:03:03.943Z,82.62
2022-11-20T11:05:44.070Z,82.56
2022-11-20T11:08:17.627Z,82.84
2022-11-20T11:10:58.431Z,82.42
2022-11-20T11:13:30.129Z,81.99
2022-11-20T11:15:59.237Z,82.41
2022-11-20T11:18:35.262Z,81.81
2022-11-20T11:21:05.874Z,80.97
2022-11-20T11:23:43.252Z,80.63
2022-11-20T11:26:24.233Z,80.56
2022-11-20T11:28:59.648Z,80.72
2022-11-20T11:31:31.652Z,79.84
2022-11-20T11:34:13.864Z,79.92
2022-11-20T11:36:42.958Z,80.01
2022-11-20T11:39:18.861Z,79.48
2022-11-20T11:41:47.607Z,78.15
2022-11-20T11:44:43.039Z,78.67
2022-11-20T11:47:44.154Z,79.05
2022-11-20T11:50:21.029Z,78.90
2022-11-20T11:53:14.460Z,77.76
2022-11-20T11:56:04.641Z,78.04
2022-11-20T11:58:47.937Z,78.00
2022-11-20T12:01:29.143Z,78.18
2022-11-20T12:04:39.156Z,77.48
2022-11-20T12:07:47.320Z,76.96
2022-11-20T12:10:52.992Z,76.67
2022-11-20T12:13:35.669Z,76.67
2022-11-20T12:16:05.224Z,76.98
2022-11-20T12:18:33.070Z,76.33
2022-11-20T12:21:33.732Z,76.08
2022-11-20T12:24:30.547Z,74.92
2022-11-20T12:27:37.241Z,75.01
2022-11-20T12:30:20.491Z,75.23
2022-11-20T12:33:15.463Z,76.44
2022-11-20T12:35:49.784Z,75.90
2022-11-20T12:38:35.947Z,74.48
2022-11-20T12:42:05.479Z,74.33
2022-11-20T12:45:10.188Z,74.88
2022-11-20T12:48:05.498Z,75.06
2022-11-20T12:51:08.443Z,75.32
2022-11-20T12:53:51.445Z,74.73
2022-11-20T12:56:43.936Z,74.32
2022-11-20T12:59:51.732Z,74.03
2022-11-20T13:02:37.525Z,74.15
2022-11-20T13:05:40.224Z,72.58
2022-11-20T13:08:38.013Z,73.44
2022-11-20T13:11:26.945Z,73.68
2022-11-20T13:14:22.019Z,73.18
2022-11-20T13:17:05.930Z,73.28
2022-11-20T13:19:34.911Z,73.81
2022-11-20T13:22:02.685Z,74.10
2022-11-20T13:24:33.129Z,73.23
2022-11-20T13:27:24.196Z,71.83
2022-11-20T13:30:16.181Z,72.52
2022-11-20T13:33:23.958Z,72.54
2022-11-20T13:36:21.098Z,72.40
2022-11-20T13:38:52.562Z,72.30
2022-11-20T13:41:34.183Z,71.59
2022-11-20T13:44:11.547Z,71.30
2022-11-20T13:46:47.917Z,71.47
2022-11-20T13:49:42.488Z,71.75
2022-11-20T13:53:09.697Z,72.37
2022-11-20T13:56:01.349Z,72.09
2022-11-20T13:58:54.320Z,72.34
2022-11-20T14:01:26.383Z,72.83
2022-11-20T14:04:09.881Z,72.53
2022-11-20T14:06:48.114Z,73.47
2022-11-20T14:09:32.790Z,73.42
2022-11-20T14:12:02.845Z,73.57
2022-11-20T14:14:34.750Z,74.07
2022-11-20T14:17:40.606Z,74.23
2022-11-20T14:20:16.395Z,73.81
2022-11-20T14:22:55.557Z,74.03
2022-11-20T14:25:31.763Z,74.34
2022-11-20T14:28:03.400Z,73.80
2022-11-20T14:30:56.524Z,74.22
2022-11-20T14:33:27.960Z,75.02
2022-11-20T14:35:58.841Z,74.64
2022-11-20T14:38:29.918Z,74.42
2022-11-20T14:41:09.906Z,74.43
2022-11-20T14:43:38.791Z,75.36
2022-11-20T14:46:10.767Z,76.79
2022-11-20T14:48:47.544Z,77.00
2022-11-20T14:51:32.416Z,77.19
2022-11-20T14:54:31.565Z,78.10
2022-11-20T14:57:03.654Z,78.46
2022-11-20T14:59:34.382Z,78.31
2022-11-20T15:02:09.588Z,78.18
2022-11-20T15:04:51.830Z,77.92
2022-11-20T15:07:33.530Z,77.92
2022-11-20T15:10:25.640Z,78.44
2022-11-20T15:12:57.809Z,78.65
2022-11-20T15:15:44.374Z,78.62
2022-11-20T15:18:19.166Z,78.37
2022-11-20T15:20:47.428Z,78.87
2022-11-20T15:23:20.014Z,78.95
2022-11-20T15:25:49.506Z,78.81
2022-11-20T15:28:34.629Z,78.84
2022-11-20T15:31:03.984Z,78.52
2022-11-20T15:33:33.486Z,79.17
2022-11-20T15:36:01.532Z,78.91
2022-11-20T15:38:29.193Z,79.27
2022-11-20T15:40:57.555Z,79.53
2022-11-20T15:43:25.339Z,79.53
2022-11-20T15:46:00.708Z,79.15
2022-11-20T15:48:35.380Z,79.21
2022-11-20T15:51:23.908Z,79.13
2022-11-20T15:53:51.580Z,79.11
2022-11-20T15:56:19.311Z,78.86
2022-11-20T15:58:46.979Z,78.95
2022-11-20T16:01:19.309Z,79.08
2022-11-20T16:03:47.714Z,78.98
2022-11-20T16:06:17.037Z,78.95
2022-11-20T16:08:44.910Z,79.38
2022-11-20T16:11:16.929Z,79.48
2022-11-20T16:14:03.435Z,78.90
2022-11-20T16:16:38.665Z,78.95
2022-11-20T16:19:06.408Z,79.25
2022-11-20T16:21:34.140Z,79.41
2022-11-20T16:24:06.480Z,79.66
2022-11-20T16:26:34.879Z,79.89
2022-11-20T16:29:06.170Z,80.14
2022-11-20T16:31:34.480Z,80.08
2022-11-20T16:34:12.386Z,80.18
2022-11-20T16:36:42.980Z,80.23
2022-11-20T16:39:11.212Z,80.21
2022-11-20T16:41:39.057Z,80.36
2022-11-20T16:44:11.570Z,80.51
2022-11-20T16:46:40.889Z,80.57
2022-11-20T16:49:14.435Z,80.54
2022-11-20T16:51:42.770Z,80.17
2022-11-20T16:54:15.026Z,80.08
2022-11-20T16:56:47.939Z,80.24
2022-11-20T16:59:15.729Z,80.14
2022-11-20T17:01:44.082Z,80.13
2022-11-20T17:04:11.904Z,80.35
2022-11-20T17:06:46.540Z,80.49
2022-11-20T17:09:14.681Z,80.84
2022-11-20T17:11:42.792Z,80.95
2022-11-20T17:14:12.020Z,81.21
2022-11-20T17:16:40.475Z,81.49
2022-11-20T17:19:08.942Z,81.54
2022-11-20T17:21:36.972Z,81.59
2022-11-20T17:24:08.313Z,81.86
2022-11-20T17:26:38.950Z,81.90
2022-11-20T17:29:11.736Z,81.86
2022-11-20T17:31:39.946Z,82.07
2022-11-20T17:34:11.911Z,81.93
2022-11-20T17:36:45.086Z,81.86
2022-11-20T17:39:17.702Z,81.81
2022-11-20T17:42:06.366Z,81.95
2022-11-20T17:44:34.204Z,82.11
2022-11-20T17:47:01.992Z,82.06
2022-11-20T17:49:29.638Z,82.12
2022-11-20T17:51:57.277Z,82.30
2022-11-20T17:54:25.617Z,82.33
2022-11-20T17:57:12.057Z,82.38
2022-11-20T17:59:40.274Z,82.46
2022-11-20T18:02:10.813Z,82.51
2022-11-20T18:04:38.584Z,82.58
2022-11-20T18:07:06.355Z,82.51
2022-11-20T18:09:34.093Z,82.50
2022-11-20T18:12:01.748Z,82.42
2022-11-20T18:14:32.723Z,82.43
2022-11-20T18:17:13.437Z,82.11
2022-11-20T18:20:13.754Z,81.67
2022-11-20T18:22:35.251Z,81.37
2022-11-20T18:25:04.064Z,80.86
2022-11-20T18:27:31.844Z,80.77
2022-11-20T18:29:59.509Z,80.77
2022-11-20T18:32:27.295Z,80.79
2022-11-20T18:34:54.990Z,80.74
2022-11-20T18:37:22.817Z,80.78
2022-11-20T18:39:50.570Z,80.76
2022-11-20T18:42:37.156Z,81.09
2022-11-20T18:45:05.849Z,80.89
2022-11-20T18:47:37.913Z,81.04
2022-11-20T18:50:08.481Z,81.00
2022-11-20T18:52:44.255Z,80.92
2022-11-20T18:55:12.858Z,80.93
2022-11-20T18:57:40.966Z,80.89
2022-11-20T19:00:10.450Z,80.76
2022-11-20T19:02:42.112Z,80.80
2022-11-20T19:05:14.192Z,81.01
2022-11-20T19:07:43.099Z,81.11
2022-11-20T19:10:11.053Z,81.11
2022-11-20T19:12:38.874Z,81.09
2022-11-20T19:15:07.256Z,81.12
2022-11-20T19:17:34.930Z,81.17
2022-11-20T19:20:02.744Z,81.19
2022-11-20T19:22:30.465Z,81.20
2022-11-20T19:24:58.132Z,81.26
2022-11-20T19:27:25.812Z,81.29
2022-11-20T19:29:57.513Z,81.24
2022-11-20T19:32:25.333Z,81.30
2022-11-20T19:34:53.080Z,81.39
2022-11-20T19:37:20.769Z,81.42
2022-11-20T19:39:48.452Z,81.48
2022-11-20T19:42:16.134Z,81.61
2022-11-20T19:44:43.832Z,81.66
2022-11-20T19:47:14.411Z,81.70
2022-11-20T19:49:42.658Z,81.82
2022-11-20T19:52:10.499Z,82.03
2022-11-20T19:54:38.196Z,82.13
2022-11-20T19:57:05.847Z,82.10
2022-11-20T19:59:33.521Z,82.18
2022-11-20T20:02:03.267Z,82.33
2022-11-20T20:04:31.240Z,82.43
2022-11-20T20:06:59.301Z,82.52
2022-11-20T20:09:27.598Z,82.78
2022-11-20T20:11:55.304Z,83.09
2022-11-20T20:14:23.024Z,83.17
2022-11-20T20:16:50.797Z,83.24
2022-11-20T20:19:18.742Z,83.52
2022-11-20T20:21:47.823Z,83.60
2022-11-20T20:24:15.731Z,83.67
2022-11-20T20:26:43.604Z,83.74
2022-11-20T20:29:11.391Z,83.91
2022-11-20T20:31:40.100Z,84.11
2022-11-20T20:34:07.862Z,84.22
2022-11-20T20:36:35.608Z,84.24
2022-11-20T20:39:03.559Z,84.31
2022-11-20T20:41:32.066Z,84.33
2022-11-20T20:44:20.436Z,84.46
2022-11-20T20:46:48.135Z,84.42
2022-11-20T20:49:15.876Z,84.47
2022-11-20T20:51:43.534Z,84.46
2022-11-20T20:54:11.276Z,84.43
2022-11-20T20:56:39.024Z,84.73
2022-11-20T20:59:06.833Z,85.06
2022-11-20T21:01:34.713Z,85.24
2022-11-20T21:04:02.483Z,85.47
2022-11-20T21:06:30.164Z,85.72
2022-11-20T21:08:58.715Z,85.45
2022-11-20T21:11:26.489Z,85.71
2022-11-20T21:13:54.157Z,85.66
2022-11-20T21:16:25.292Z,86.13
2022-11-20T21:18:52.973Z,86.18
2022-11-20T21:21:39.261Z,85.93
2022-11-20T21:24:07.697Z,85.79
2022-11-20T21:26:35.317Z,85.94
2022-11-20T21:29:03.045Z,85.91
2022-11-20T21:31:31.109Z,85.74
2022-11-20T21:33:58.940Z,85.64
2022-11-20T21:36:30.098Z,85.61
2022-11-20T21:38:59.500Z,85.64
2022-11-20T21:41:32.522Z,85.78
2022-11-20T21:46:51.704Z,85.94
2022-11-20T21:49:19.365Z,85.94
2022-11-20T21:51:47.078Z,86.02
2022-11-20T21:54:14.823Z,85.93
2022-11-20T21:56:42.474Z,86.00
2022-11-20T21:59:13.314Z,85.78
2022-11-20T22:01:41.661Z,85.45
2022-11-20T22:04:15.356Z,85.60
2022-11-20T22:06:43.092Z,85.50
2022-11-20T22:09:11.620Z,85.53
2022-11-20T22:11:39.394Z,85.54
2022-11-20T22:14:23.745Z,85.43
2022-11-20T22:16:53.865Z,85.21
2022-11-20T22:19:23.188Z,85.01
2022-11-20T22:21:51.253Z,84.98
2022-11-20T22:24:21.920Z,85.23
2022-11-20T22:26:50.516Z,85.21
2022-11-20T22:29:21.157Z,85.51
2022-11-20T22:31:52.730Z,85.31
2022-11-20T22:34:20.304Z,85.38
2022-11-20T22:36:48.228Z,85.37
2022-11-20T22:39:16.031Z,85.28
2022-11-20T22:41:43.693Z,85.53
2022-11-20T22:44:15.559Z,85.73
2022-11-20T22:46:43.254Z,85.84
2022-11-20T22:49:11.087Z,85.83
2022-11-20T22:51:41.496Z,85.88
2022-11-20T22:54:12.429Z,85.63
2022-11-20T22:56:41.485Z,85.76
2022-11-20T22:59:09.734Z,85.87
2022-11-20T23:01:38.316Z,86.07
2022-11-20T23:04:10.297Z,86.19
2022-11-20T23:06:38.567Z,86.34
2022-11-20T23:09:08.469Z,86.57
2022-11-20T23:11:36.413Z,86.88
2022-11-20T23:14:15.461Z,87.05
2022-11-20T23:16:43.202Z,87.13
2022-11-20T23:19:14.060Z,87.17
2022-11-20T23:21:43.105Z,87.24
2022-11-20T23:24:11.459Z,87.44
2022-11-20T23:26:41.486Z,87.47
2022-11-20T23:29:09.393Z,87.58
2022-11-20T23:31:37.144Z,87.58
2022-11-20T23:34:05.424Z,87.62
2022-11-20T23:36:33.229Z,87.79
2022-11-20T23:39:00.957Z,87.67
2022-11-20T23:41:28.699Z,87.60
2022-11-20T23:43:56.441Z,87.50
2022-11-20T23:46:24.235Z,87.57
2022-11-20T23:48:51.960Z,87.46
2022-11-20T23:51:19.674Z,87.36
2022-11-20T23:53:47.410Z,87.36
2022-11-20T23:56:15.217Z,87.52
2022-11-20T23:58:43.378Z,87.61
